Time;durP1;ratioP1;P1;durP2;ratioP2;P2;SDS_P1;SDS_P2;PMS_P1;PMS_P2;Temp;Humidity;BMP_temperature;BMP_pressure;BME280_temperature;BME280_humidity;BME280_pressure;Samples;Min_cycle;Max_cycle;Signal;HPM_P1;HPM_P2
2021/11/04 00:02:05;;;;;;;;;6.00;6.00;;;;;17.95;44.29;100246.88;4996180;28;51013;-46
2021/11/04 00:04:30;;;;;;;;;6.75;4.75;;;;;17.95;44.11;100233.19;4995483;28;51788;-47
2021/11/04 00:06:56;;;;;;;;;6.00;6.00;;;;;17.94;43.97;100227.91;4996074;28;51145;-48
2021/11/04 00:09:21;;;;;;;;;5.00;5.00;;;;;17.95;44.29;100229.59;4996066;28;51134;-49
2021/11/04 00:11:47;;;;;;;;;5.00;4.00;;;;;17.94;44.25;100228.75;4995972;28;51016;-45
2021/11/04 00:14:12;;;;;;;;;5.50;5.00;;;;;17.95;44.11;100232.34;4995499;28;51085;-44
2021/11/04 00:16:38;;;;;;;;;6.00;6.00;;;;;17.94;44.03;100231.50;4994299;28;51123;-51
2021/11/04 00:19:03;;;;;;;;;5.50;5.50;;;;;17.94;44.46;100228.75;4995859;28;51157;-48
2021/11/04 00:21:29;;;;;;;;;4.50;3.75;;;;;17.93;44.31;100231.72;4995832;28;51004;-46
2021/11/04 00:23:55;;;;;;;;;5.75;5.75;;;;;17.93;44.42;100227.09;4995366;28;52862;-48
2021/11/04 00:26:20;;;;;;;;;4.75;4.75;;;;;17.93;44.20;100224.34;5013756;28;51081;-45
2021/11/04 00:28:46;;;;;;;;;4.00;4.00;;;;;17.93;44.61;100223.50;5079179;27;50979;-48
2021/11/04 00:31:12;;;;;;;;;6.75;6.75;;;;;17.93;44.36;100226.25;5079405;27;51345;-50
2021/11/04 00:33:38;;;;;;;;;6.00;5.00;;;;;17.92;44.16;100227.28;5078800;27;52678;-47
2021/11/04 00:36:04;;;;;;;;;4.50;4.50;;;;;17.92;44.17;100227.28;5077847;28;51127;-49
2021/11/04 00:38:29;;;;;;;;;5.00;4.50;;;;;17.91;44.36;100229.19;5078771;27;50975;-46
2021/11/04 00:40:55;;;;;;;;;7.50;5.25;;;;;17.92;44.21;100219.06;5079246;27;50934;-48
2021/11/04 00:43:21;;;;;;;;;6.25;5.75;;;;;17.92;44.16;100238.22;5078797;27;51939;-44
2021/11/04 00:45:46;;;;;;;;;6.50;5.50;;;;;17.90;44.39;100238.47;5078620;27;50998;-44
2021/11/04 00:48:12;;;;;;;;;6.50;5.25;;;;;17.91;44.41;100239.31;5079179;27;51171;-50
2021/11/04 00:50:37;;;;;;;;;9.25;7.00;;;;;17.91;44.17;100244.78;5077771;28;51473;-49
2021/11/04 00:53:03;;;;;;;;;6.00;6.00;;;;;17.89;44.35;100243.09;5078759;27;51816;-48
2021/11/04 00:55:28;;;;;;;;;7.25;6.75;;;;;17.89;44.23;100248.59;5078941;27;51173;-44
2021/11/04 00:57:54;;;;;;;;;10.00;7.75;;;;;17.90;44.32;100249.41;5077275;27;51065;-47
2021/11/04 01:00:19;;;;;;;;;6.25;6.25;;;;;17.89;44.50;100245.00;5078935;27;51257;-51
2021/11/04 01:02:45;;;;;;;;;6.50;6.50;;;;;17.88;44.07;100246.91;5078556;27;51291;-44
2021/11/04 01:05:11;;;;;;;;;6.25;5.00;;;;;17.87;44.44;100242.50;5078815;27;51044;-49
2021/11/04 01:07:37;;;;;;;;;6.75;6.00;;;;;17.89;44.51;100239.53;5077337;28;51085;-47
2021/11/04 01:10:04;;;;;;;;;7.25;6.25;;;;;17.88;44.48;100244.16;5077440;28;51283;-48
2021/11/04 01:12:29;;;;;;;;;8.75;5.00;;;;;17.87;44.40;100242.50;5078103;27;50990;-49
2021/11/04 01:14:55;;;;;;;;;8.75;7.75;;;;;17.88;44.24;100240.59;5078405;27;51076;-48
2021/11/04 01:17:20;;;;;;;;;4.75;4.75;;;;;17.88;44.44;100243.31;5078742;27;51189;-46
2021/11/04 01:19:45;;;;;;;;;7.00;6.75;;;;;17.87;44.28;100237.00;5078515;27;51141;-50
2021/11/04 01:22:11;;;;;;;;;7.25;6.50;;;;;17.88;44.48;100244.16;5078219;27;51017;-51
2021/11/04 01:24:36;;;;;;;;;5.25;4.75;;;;;17.87;44.35;100234.28;5078414;27;51020;-47
2021/11/04 01:27:02;;;;;;;;;6.25;6.00;;;;;17.86;44.37;100237.22;5036129;27;51144;-46
2021/11/04 01:29:27;;;;;;;;;11.00;7.00;;;;;17.87;44.20;100244.38;4994696;28;51116;-47
2021/11/04 01:31:53;;;;;;;;;6.25;6.25;;;;;17.88;44.32;100240.59;4995012;28;51714;-45
2021/11/04 01:34:18;;;;;;;;;6.25;5.25;;;;;17.86;43.88;100245.44;4994708;28;51193;-44
2021/11/04 01:36:43;;;;;;;;;6.75;6.25;;;;;17.88;44.20;100248.81;4994869;28;51250;-46
2021/11/04 01:39:09;;;;;;;;;7.00;7.00;;;;;17.86;44.18;100246.28;4994831;28;51155;-44
2021/11/04 01:41:34;;;;;;;;;8.75;5.75;;;;;17.86;44.29;100243.56;4994805;28;51804;-47
2021/11/04 01:44:00;;;;;;;;;7.25;6.00;;;;;17.86;44.32;100249.03;4994987;28;51032;-43
2021/11/04 01:46:26;;;;;;;;;6.25;5.25;;;;;17.85;44.37;100250.09;4994553;28;51123;-44
2021/11/04 01:48:52;;;;;;;;;6.25;5.00;;;;;17.86;44.14;100250.94;4994853;28;50941;-47
2021/11/04 01:51:18;;;;;;;;;5.75;5.75;;;;;17.85;44.46;100247.34;4994500;28;51698;-47
2021/11/04 01:53:45;;;;;;;;;6.00;4.25;;;;;17.84;44.25;100239.34;4994822;28;51255;-48
2021/11/04 01:56:10;;;;;;;;;8.75;8.00;;;;;17.83;44.28;100238.53;4994760;28;51404;-46
2021/11/04 01:58:36;;;;;;;;;7.50;7.50;;;;;17.83;44.36;100238.53;4994829;28;51177;-45
2021/11/04 02:01:02;;;;;;;;;5.00;5.00;;;;;17.84;44.51;100245.69;4992795;28;51659;-48
2021/11/04 02:03:47;;;;;;;;;6.50;4.25;;;;;17.83;44.26;100244.00;4994312;27;51116;-46
2021/11/04 02:06:37;;;;;;;;;7.50;6.00;;;;;17.83;44.11;100248.63;4994518;28;51082;-43
2021/11/04 02:09:10;;;;;;;;;5.75;5.75;;;;;17.84;44.08;100253.06;4994662;28;51085;-44
2021/11/04 02:11:49;;;;;;;;;6.50;6.25;;;;;17.83;44.51;100249.47;4994631;28;51034;-48
2021/11/04 02:14:23;;;;;;;;;5.75;5.00;;;;;17.83;44.51;100256.84;4994195;28;51194;-49
2021/11/04 02:16:51;;;;;;;;;6.00;6.00;;;;;17.82;44.39;100250.53;4994491;28;50970;-45
2021/11/04 02:19:35;;;;;;;;;5.00;4.00;;;;;17.82;44.25;100249.66;4992738;28;51115;-48
2021/11/04 02:22:02;;;;;;;;;3.75;3.25;;;;;17.82;44.31;100245.06;4994403;28;51983;-48
2021/11/04 02:24:40;;;;;;;;;4.50;4.50;;;;;17.82;44.35;100244.19;4993071;28;50981;-45
2021/11/04 02:27:09;;;;;;;;;6.50;5.00;;;;;17.82;44.40;100260.63;5038404;28;51123;-43
2021/11/04 02:29:37;;;;;;;;;4.25;4.25;;;;;17.81;44.13;100259.78;5076145;28;51115;-45
2021/11/04 02:32:03;;;;;;;;;5.00;5.00;;;;;17.80;44.20;100266.34;5077374;27;51335;-49
2021/11/04 02:34:29;;;;;;;;;7.00;5.75;;;;;17.81;44.40;100264.44;5077258;27;51123;-49
2021/11/04 02:36:57;;;;;;;;;5.75;4.00;;;;;17.81;44.40;100265.28;5077268;27;51191;-46
2021/11/04 02:39:27;;;;;;;;;10.25;5.75;;;;;17.80;44.37;100260.00;5077466;27;50974;-46
2021/11/04 02:41:53;;;;;;;;;9.50;7.25;;;;;17.80;44.55;100254.53;5077188;27;51138;-45
2021/11/04 02:44:19;;;;;;;;;5.75;4.00;;;;;17.80;44.37;100257.28;5077195;27;51043;-44
2021/11/04 02:46:44;;;;;;;;;4.00;3.75;;;;;17.79;44.38;100259.19;5076780;27;51113;-48
2021/11/04 02:49:11;;;;;;;;;5.00;5.00;;;;;17.80;44.41;100269.06;5075939;28;51069;-49
2021/11/04 02:51:37;;;;;;;;;6.00;5.00;;;;;17.78;44.40;100265.72;5076760;27;51926;-47
2021/11/04 02:54:06;;;;;;;;;5.75;4.75;;;;;17.79;44.28;100270.13;5076839;28;51053;-48
2021/11/04 02:56:42;;;;;;;;;6.25;5.00;;;;;17.79;44.12;100275.63;5077126;28;51060;-46
2021/11/04 02:59:08;;;;;;;;;5.00;5.00;;;;;17.79;44.32;100275.63;5076802;27;51354;-49
2021/11/04 03:01:33;;;;;;;;;5.75;5.00;;;;;17.79;44.39;100270.13;5076555;28;51743;-48
2021/11/04 03:03:59;;;;;;;;;4.50;4.50;;;;;17.79;44.43;100277.50;5076795;27;51031;-46
2021/11/04 03:06:24;;;;;;;;;6.00;5.00;;;;;17.78;44.16;100278.56;5076697;27;51059;-49
2021/11/04 03:08:49;;;;;;;;;8.00;4.25;;;;;17.78;44.49;100282.16;5075440;28;51094;-49
2021/11/04 03:11:14;;;;;;;;;5.50;5.50;;;;;17.78;44.18;100281.31;5076763;27;51861;-48
2021/11/04 03:13:40;;;;;;;;;4.25;4.00;;;;;17.78;44.47;100279.41;5076269;27;51045;-46
2021/11/04 03:16:08;;;;;;;;;7.75;6.50;;;;;17.78;44.40;100275.84;5076523;27;51052;-49
2021/11/04 03:18:34;;;;;;;;;6.50;4.00;;;;;17.77;44.23;100283.22;5076529;27;51162;-44
2021/11/04 03:21:00;;;;;;;;;5.25;5.25;;;;;17.77;44.18;100283.22;5076215;27;52990;-46
2021/11/04 03:23:26;;;;;;;;;4.75;4.75;;;;;17.77;44.42;100274.16;5076488;28;51565;-48
2021/11/04 03:25:52;;;;;;;;;4.75;4.75;;;;;17.76;44.00;100276.06;5074739;27;51084;-43
2021/11/04 03:28:18;;;;;;;;;7.25;4.50;;;;;17.77;44.36;100282.38;4993734;28;51122;-50
2021/11/04 03:30:45;;;;;;;;;6.75;5.00;;;;;17.76;44.40;100276.06;4991765;28;52047;-50
2021/11/04 03:33:10;;;;;;;;;6.25;5.00;;;;;17.77;44.39;100290.59;4993422;28;51103;-43
2021/11/04 03:35:37;;;;;;;;;7.50;6.25;;;;;17.77;44.43;100282.38;4993605;28;50996;-47
2021/11/04 03:38:08;;;;;;;;;9.25;5.25;;;;;17.75;44.28;100281.75;4993397;28;51207;-45
2021/11/04 03:40:35;;;;;;;;;3.75;3.75;;;;;17.75;44.06;100285.34;4991917;28;53100;-49
2021/11/04 03:43:01;;;;;;;;;4.50;4.50;;;;;17.76;44.33;100286.19;4993363;28;51159;-46
2021/11/04 03:45:29;;;;;;;;;6.25;5.75;;;;;17.74;44.28;100286.41;4991800;28;51137;-48
2021/11/04 03:47:54;;;;;;;;;7.50;5.00;;;;;17.75;44.20;100295.47;4991977;28;51277;-42
2021/11/04 03:50:23;;;;;;;;;6.00;5.75;;;;;17.74;44.20;100293.78;4992984;28;52014;-48
2021/11/04 03:52:49;;;;;;;;;7.25;5.00;;;;;17.74;44.04;100294.63;4993128;28;51044;-45
2021/11/04 03:55:17;;;;;;;;;7.25;5.75;;;;;17.73;44.28;100303.91;4993199;28;51191;-48
2021/11/04 03:57:45;;;;;;;;;4.50;4.50;;;;;17.73;44.30;100294.84;4993341;28;51263;-44
2021/11/04 04:00:12;;;;;;;;;8.25;5.75;;;;;17.72;44.25;100299.47;4992730;28;51805;-47
2021/11/04 04:02:39;;;;;;;;;6.00;4.25;;;;;17.73;43.99;100303.91;5008074;27;51437;-42
2021/11/04 04:05:05;;;;;;;;;3.75;3.75;;;;;17.73;44.24;100303.91;4992864;28;51091;-48
2021/11/04 04:07:32;;;;;;;;;7.25;5.00;;;;;17.73;44.21;100311.28;4993372;28;50933;-50
2021/11/04 04:09:59;;;;;;;;;4.75;4.25;;;;;17.73;44.36;100303.06;4992749;28;52147;-44
2021/11/04 04:12:25;;;;;;;;;6.75;6.75;;;;;17.73;44.45;100312.13;4992802;28;51513;-44
2021/11/04 04:14:50;;;;;;;;;5.00;4.50;;;;;17.73;44.32;100312.13;4992751;28;51141;-49
2021/11/04 04:17:21;;;;;;;;;7.50;5.50;;;;;17.73;44.39;100314.00;4992950;28;51254;-48
2021/11/04 04:19:47;;;;;;;;;5.75;5.75;;;;;17.72;44.30;100302.22;4992391;28;51052;-42
2021/11/04 04:22:12;;;;;;;;;5.50;5.50;;;;;17.72;44.39;100307.69;4992796;28;51034;-49
2021/11/04 04:24:38;;;;;;;;;5.00;5.00;;;;;17.71;44.38;100314.22;4992940;28;51064;-47
2021/11/04 04:27:03;;;;;;;;;5.00;5.00;;;;;17.72;44.03;100318.66;5035509;28;50928;-49
2021/11/04 04:29:29;;;;;;;;;4.75;4.75;;;;;17.71;44.18;100316.09;5075037;27;51933;-48
2021/11/04 04:31:55;;;;;;;;;5.25;5.25;;;;;17.71;44.22;100314.22;5075705;28;51114;-51
2021/11/04 04:34:20;;;;;;;;;8.00;8.00;;;;;17.71;44.18;100321.59;5075600;27;51001;-49
2021/11/04 04:36:46;;;;;;;;;12.00;8.75;;;;;17.71;44.47;100327.06;5075744;27;51127;-51
2021/11/04 04:39:12;;;;;;;;;7.00;5.50;;;;;17.72;44.44;100337.00;5075070;28;50934;-46
2021/11/04 04:41:37;;;;;;;;;4.00;4.00;;;;;17.72;44.47;100339.72;5077702;27;51046;-48
2021/11/04 04:44:02;;;;;;;;;7.00;7.00;;;;;17.70;44.10;100342.66;5094759;27;51091;-48
2021/11/04 04:46:28;;;;;;;;;6.25;5.00;;;;;17.70;44.43;100345.41;5078868;27;51000;-49
2021/11/04 04:48:53;;;;;;;;;4.75;4.50;;;;;17.71;44.19;100349.81;5078536;27;51949;-45
2021/11/04 04:51:19;;;;;;;;;6.25;5.25;;;;;17.71;44.18;100352.56;5079263;28;51092;-44
2021/11/04 04:53:44;;;;;;;;;7.00;6.00;;;;;17.71;44.11;100349.81;5079047;27;51198;-48
2021/11/04 04:56:09;;;;;;;;;6.00;6.00;;;;;17.70;44.47;100353.63;5079307;27;51397;-47
2021/11/04 04:58:35;;;;;;;;;7.00;6.25;;;;;17.70;44.15;100339.91;5077116;28;51892;-44
2021/11/04 05:01:00;;;;;;;;;6.00;6.00;;;;;17.70;44.40;100342.66;5078695;27;51123;-46
2021/11/04 05:03:26;;;;;;;;;8.75;8.00;;;;;17.71;44.22;100338.84;5078606;27;51107;-47
2021/11/04 05:05:52;;;;;;;;;7.25;5.00;;;;;17.70;44.38;100350.88;5079056;27;50963;-47
2021/11/04 05:08:17;;;;;;;;;5.25;5.25;;;;;17.70;44.28;100345.41;5078417;28;50961;-49
2021/11/04 05:10:43;;;;;;;;;4.50;4.50;;;;;17.69;44.49;100340.09;5078740;27;50907;-44
2021/11/04 05:13:08;;;;;;;;;6.50;5.25;;;;;17.70;44.32;100339.91;5078215;27;51164;-45
2021/11/04 05:15:33;;;;;;;;;7.00;6.00;;;;;17.69;44.37;100338.25;5078616;27;51406;-43
2021/11/04 05:17:59;;;;;;;;;6.75;4.50;;;;;17.68;44.39;100339.25;5078254;27;51382;-48
2021/11/04 05:20:24;;;;;;;;;6.75;5.25;;;;;17.69;44.23;100345.59;5078564;27;51040;-46
2021/11/04 05:22:50;;;;;;;;;5.00;5.00;;;;;17.69;44.54;100346.47;5078908;27;50957;-44
2021/11/04 05:25:15;;;;;;;;;5.25;5.25;;;;;17.70;44.48;100352.78;5078751;27;50938;-47
2021/11/04 05:27:47;;;;;;;;;5.50;4.75;;;;;17.69;44.59;100357.41;5012071;28;53165;-43
2021/11/04 05:30:15;;;;;;;;;4.25;4.25;;;;;17.69;44.20;100351.94;4994782;28;51082;-46
2021/11/04 05:32:40;;;;;;;;;6.75;5.00;;;;;17.68;44.68;100358.44;4995009;28;51136;-43
2021/11/04 05:35:06;;;;;;;;;6.25;5.25;;;;;17.68;44.38;100366.66;4995150;28;51149;-49
2021/11/04 05:37:31;;;;;;;;;6.50;6.00;;;;;17.68;44.48;100374.88;4994530;28;51095;-43
2021/11/04 05:39:57;;;;;;;;;6.00;4.00;;;;;17.67;44.10;100364.13;4995099;28;51204;-48
2021/11/04 05:42:22;;;;;;;;;6.00;4.50;;;;;17.68;44.30;100368.56;4995067;28;51196;-48
2021/11/04 05:44:48;;;;;;;;;6.75;5.25;;;;;17.68;44.56;100368.56;4994841;28;51088;-50
2021/11/04 05:47:13;;;;;;;;;5.50;5.00;;;;;17.67;44.38;100361.41;4994751;28;51504;-44
2021/11/04 05:49:39;;;;;;;;;7.75;7.75;;;;;17.67;44.55;100364.13;4993366;28;51139;-44
2021/11/04 05:52:05;;;;;;;;;5.25;5.00;;;;;17.67;44.31;100353.19;4994010;28;51036;-47
2021/11/04 05:54:30;;;;;;;;;6.00;6.00;;;;;17.67;44.29;100358.66;4994840;28;51136;-48
2021/11/04 05:56:56;;;;;;;;;4.50;4.00;;;;;17.68;44.47;100369.41;4993254;28;51145;-48
2021/11/04 05:59:21;;;;;;;;;5.75;5.75;;;;;17.66;44.27;100365.19;4994389;28;51061;-47
2021/11/04 06:01:46;;;;;;;;;5.25;5.00;;;;;17.67;44.26;100375.09;4994485;28;51113;-43
2021/11/04 06:04:12;;;;;;;;;6.00;6.00;;;;;17.66;44.19;100379.72;4994612;28;51135;-44
2021/11/04 06:06:37;;;;;;;;;6.25;4.75;;;;;17.67;44.55;100377.84;4994501;28;51801;-45
2021/11/04 06:09:03;;;;;;;;;5.75;4.75;;;;;17.67;44.35;100375.09;4994555;28;51097;-48
2021/11/04 06:11:28;;;;;;;;;7.25;6.00;;;;;17.66;44.61;100379.72;4994761;28;51072;-45
2021/11/04 06:13:53;;;;;;;;;4.25;4.25;;;;;17.66;44.35;100387.94;4994411;28;51386;-48
2021/11/04 06:16:19;;;;;;;;;6.25;4.75;;;;;17.66;44.41;100384.38;4992864;28;51224;-45
2021/11/04 06:18:44;;;;;;;;;7.75;5.25;;;;;17.65;44.47;100383.53;4994306;28;51036;-50
2021/11/04 06:21:13;;;;;;;;;7.25;5.25;;;;;17.65;44.34;100394.50;4993238;28;51100;-51
2021/11/04 06:23:42;;;;;;;;;5.75;5.75;;;;;17.65;44.44;100394.50;4994628;28;51027;-48
2021/11/04 06:26:08;;;;;;;;;3.75;3.75;;;;;17.66;44.58;100398.06;5004868;28;51732;-46
2021/11/04 06:28:33;;;;;;;;;5.50;5.50;;;;;17.65;44.64;100394.50;5077301;27;51103;-47
2021/11/04 06:30:58;;;;;;;;;4.00;3.00;;;;;17.65;44.31;100402.72;5077263;27;50952;-47
2021/11/04 06:33:24;;;;;;;;;8.00;4.50;;;;;17.66;44.46;100406.28;5077394;27;51061;-44
2021/11/04 06:35:53;;;;;;;;;5.50;5.50;;;;;17.65;44.53;100410.94;5077034;27;51722;-43
2021/11/04 06:38:18;;;;;;;;;4.50;4.50;;;;;17.65;44.52;100407.34;5076733;27;51178;-42
2021/11/04 06:40:44;;;;;;;;;7.75;6.00;;;;;17.65;44.34;100410.09;5077123;27;51047;-44
2021/11/04 06:43:12;;;;;;;;;8.75;5.75;;;;;17.64;44.14;100409.25;5077419;27;51032;-47
2021/11/04 06:45:49;;;;;;;;;7.25;5.00;;;;;17.65;44.45;100412.81;5075527;27;51275;-48
2021/11/04 06:48:21;;;;;;;;;7.25;4.75;;;;;17.64;44.50;100420.19;5076645;27;51441;-44
2021/11/04 06:50:49;;;;;;;;;4.75;3.25;;;;;17.64;44.48;100420.19;5076969;27;51045;-47
2021/11/04 06:53:20;;;;;;;;;4.25;3.50;;;;;17.63;44.76;100413.03;5077207;27;51282;-46
2021/11/04 06:55:46;;;;;;;;;4.50;4.50;;;;;17.64;44.74;100425.69;5076606;27;52015;-48
2021/11/04 06:58:14;;;;;;;;;7.00;5.50;;;;;17.63;44.65;100418.53;5076770;27;51352;-42
2021/11/04 07:00:44;;;;;;;;;5.25;5.00;;;;;17.63;44.69;100428.63;5076877;27;51006;-48
2021/11/04 07:03:23;;;;;;;;;4.25;2.75;;;;;17.63;44.53;100429.47;5076642;27;51105;-47
2021/11/04 07:05:56;;;;;;;;;5.25;4.25;;;;;17.64;44.94;100433.06;5076432;27;51809;-48
2021/11/04 07:08:25;;;;;;;;;4.75;4.75;;;;;17.64;44.70;100439.38;5076512;28;51084;-43
2021/11/04 07:10:59;;;;;;;;;4.50;4.50;;;;;17.65;44.84;100443.78;5076792;27;50976;-44
2021/11/04 07:13:28;;;;;;;;;5.50;4.25;;;;;17.65;44.53;100440.22;5076631;27;51026;-43
2021/11/04 07:15:58;;;;;;;;;4.50;3.25;;;;;17.64;44.77;100447.59;5076249;27;52092;-47
2021/11/04 07:18:25;;;;;;;;;4.25;4.25;;;;;17.63;44.57;100451.38;5076156;27;51115;-49
2021/11/04 07:21:15;;;;;;;;;3.75;3.75;;;;;17.64;44.58;100453.06;5076819;27;51147;-47
2021/11/04 07:24:03;;;;;;;;;5.75;4.25;;;;;17.64;44.59;100461.28;5076850;27;51168;-47
2021/11/04 07:26:36;;;;;;;;;3.50;3.50;;;;;17.65;44.92;100470.34;5045580;28;51048;-47
2021/11/04 07:29:05;;;;;;;;;4.00;4.00;;;;;17.64;44.77;100468.66;4993369;28;51061;-48
2021/11/04 07:31:36;;;;;;;;;3.00;3.00;;;;;17.64;44.40;100469.50;4993554;28;51079;-47
2021/11/04 07:34:04;;;;;;;;;3.00;3.00;;;;;17.63;44.92;100476.03;4993276;28;51373;-45
2021/11/04 07:36:32;;;;;;;;;5.25;4.00;;;;;17.63;44.49;100481.53;4992843;28;51694;-48
2021/11/04 07:38:58;;;;;;;;;3.50;3.25;;;;;17.65;44.96;100490.34;4992868;28;51420;-46
2021/11/04 07:41:23;;;;;;;;;4.75;2.75;;;;;17.63;44.44;100495.22;4993074;28;51026;-49
2021/11/04 07:43:49;;;;;;;;;5.50;3.00;;;;;17.64;44.52;100493.31;4993557;28;51009;-49
2021/11/04 07:46:16;;;;;;;;;3.50;3.00;;;;;17.63;44.96;100495.22;4991545;28;51067;-47
2021/11/04 07:48:42;;;;;;;;;4.75;3.25;;;;;17.64;44.59;100502.38;4992870;28;51296;-50
2021/11/04 07:51:08;;;;;;;;;5.50;3.00;;;;;17.63;44.67;100506.16;4993137;28;50943;-49
2021/11/04 07:53:33;;;;;;;;;3.00;2.25;;;;;17.64;44.81;100513.34;4993138;28;51298;-47
2021/11/04 07:55:59;;;;;;;;;2.50;2.50;;;;;17.62;44.67;100512.72;4991537;28;53858;-50
2021/11/04 07:58:24;;;;;;;;;5.25;3.25;;;;;17.63;44.51;100511.66;4992591;28;51123;-45
2021/11/04 08:00:50;;;;;;;;;3.75;3.75;;;;;17.63;44.72;100519.03;4992423;28;50952;-45
2021/11/04 08:03:15;;;;;;;;;2.25;2.25;;;;;17.64;44.77;100515.22;4992994;28;51017;-44
2021/11/04 08:05:41;;;;;;;;;3.75;3.00;;;;;17.63;44.80;100524.50;4992568;28;50953;-47
2021/11/04 08:08:07;;;;;;;;;4.00;4.00;;;;;17.64;44.85;100529.75;4992711;28;51057;-44
2021/11/04 08:10:33;;;;;;;;;3.25;3.00;;;;;17.63;44.60;100525.34;4992517;28;51100;-47
2021/11/04 08:13:05;;;;;;;;;4.00;3.50;;;;;17.63;44.85;100519.88;4992707;28;51333;-46
2021/11/04 08:15:31;;;;;;;;;4.50;3.75;;;;;17.64;44.77;100532.50;4992448;28;51903;-44
2021/11/04 08:17:56;;;;;;;;;3.00;3.00;;;;;17.64;44.74;100529.75;4995427;28;51142;-50
2021/11/04 08:20:22;;;;;;;;;3.00;2.25;;;;;17.65;44.51;100533.34;4994650;27;51142;-48
2021/11/04 08:22:47;;;;;;;;;5.00;2.75;;;;;17.65;44.56;100541.56;4995842;28;51112;-44
2021/11/04 08:25:12;;;;;;;;;3.00;3.00;;;;;17.64;44.94;100535.25;4995552;28;51884;-46
2021/11/04 08:27:38;;;;;;;;;3.75;2.75;;;;;17.66;44.99;100544.09;5058568;28;51150;-49
2021/11/04 08:30:05;;;;;;;;;3.50;3.50;;;;;17.65;44.79;100541.56;5078721;27;51016;-45
2021/11/04 08:32:31;;;;;;;;;5.75;4.00;;;;;17.64;44.70;100548.94;5078956;27;51101;-49
2021/11/04 08:34:56;;;;;;;;;5.00;3.50;;;;;17.65;44.75;100550.63;5078753;28;51957;-43
2021/11/04 08:37:22;;;;;;;;;3.00;3.00;;;;;17.65;44.86;100549.78;5078903;27;51052;-47
2021/11/04 08:39:47;;;;;;;;;3.25;3.00;;;;;17.66;44.73;100565.16;5077522;28;51213;-44
2021/11/04 08:42:15;;;;;;;;;2.75;2.75;;;;;17.66;44.59;100562.41;5079036;27;50914;-47
2021/11/04 08:44:41;;;;;;;;;3.75;3.25;;;;;17.66;44.64;100570.63;5078130;27;52762;-44
2021/11/04 08:47:08;;;;;;;;;2.50;2.50;;;;;17.65;44.98;100578.00;5078497;27;51179;-42
2021/11/04 08:49:34;;;;;;;;;3.50;3.50;;;;;17.65;44.65;100569.78;5078817;27;51196;-47
2021/11/04 08:51:59;;;;;;;;;3.75;3.75;;;;;17.66;44.77;100567.91;5078711;27;51423;-47
2021/11/04 08:54:25;;;;;;;;;4.25;1.75;;;;;17.66;44.89;100574.22;5078270;27;51768;-47
2021/11/04 08:56:51;;;;;;;;;3.75;2.50;;;;;17.65;44.83;100575.28;5078179;27;51339;-49
2021/11/04 08:59:18;;;;;;;;;0.75;0.75;;;;;17.66;44.76;100579.69;5078160;27;51204;-44
2021/11/04 09:01:45;;;;;;;;;2.00;2.00;;;;;17.66;44.84;100576.13;5078374;27;51248;-46
2021/11/04 09:04:15;;;;;;;;;6.75;4.00;;;;;17.66;44.88;100579.69;5077422;27;51803;-45
2021/11/04 09:06:40;;;;;;;;;2.00;2.00;;;;;17.66;44.86;100579.69;5077942;28;51293;-44
2021/11/04 09:09:12;;;;;;;;;4.50;4.00;;;;;17.67;44.99;100583.28;5078010;27;51076;-47
2021/11/04 09:11:37;;;;;;;;;2.50;2.00;;;;;17.68;44.82;100585.81;5078721;28;51105;-46
2021/11/04 09:14:04;;;;;;;;;2.50;2.50;;;;;17.67;44.81;100592.34;5077350;27;51659;-47
2021/11/04 09:16:29;;;;;;;;;4.25;1.50;;;;;17.67;44.68;100602.44;5078325;27;51353;-49
2021/11/04 09:18:56;;;;;;;;;3.00;3.00;;;;;17.68;44.61;100596.75;5078291;27;51217;-51
2021/11/04 09:21:24;;;;;;;;;2.25;1.00;;;;;17.67;44.85;100600.56;5078039;27;51247;-46
2021/11/04 09:23:49;;;;;;;;;2.25;2.00;;;;;17.69;44.81;100603.97;5078170;27;51710;-48
2021/11/04 09:26:15;;;;;;;;;3.75;3.75;;;;;17.69;44.41;100609.44;5063177;27;50996;-49
2021/11/04 09:28:40;;;;;;;;;3.00;2.00;;;;;17.70;44.73;100613.00;4993563;28;51088;-47
2021/11/04 09:31:08;;;;;;;;;2.25;2.00;;;;;17.69;44.92;100620.41;4994619;28;50977;-49
2021/11/04 09:33:33;;;;;;;;;3.75;2.00;;;;;17.69;44.80;100609.44;4994139;28;52072;-48
2021/11/04 09:35:58;;;;;;;;;1.75;1.75;;;;;17.70;44.52;100610.28;4994326;28;51167;-49
2021/11/04 09:38:24;;;;;;;;;2.00;2.00;;;;;17.71;44.47;100622.91;4994099;28;51116;-48
2021/11/04 09:40:49;;;;;;;;;1.50;1.50;;;;;17.70;44.65;100616.59;4994521;28;51076;-49
2021/11/04 09:43:14;;;;;;;;;2.00;1.00;;;;;17.70;44.73;100616.59;4993964;28;51674;-51
2021/11/04 09:45:40;;;;;;;;;3.00;2.00;;;;;17.70;44.79;100616.59;4993973;28;51087;-44
2021/11/04 09:48:06;;;;;;;;;2.75;2.75;;;;;17.71;44.47;100621.03;4994064;28;51178;-49
2021/11/04 09:50:32;;;;;;;;;4.75;2.50;;;;;17.71;44.79;100617.44;4994331;28;51061;-48
2021/11/04 09:52:57;;;;;;;;;3.75;2.00;;;;;17.72;44.46;100620.00;4994015;28;52427;-45
2021/11/04 09:55:26;;;;;;;;;2.75;2.00;;;;;17.72;44.53;100625.47;4994061;28;51103;-45
2021/11/04 09:57:54;;;;;;;;;2.00;2.00;;;;;17.72;44.77;100625.47;4993940;28;51040;-44
2021/11/04 10:00:22;;;;;;;;;1.00;1.00;;;;;17.73;44.70;100631.78;4994334;28;50990;-44
2021/11/04 10:03:07;;;;;;;;;1.50;1.50;;;;;17.73;44.87;100631.78;4992503;28;51247;-45
2021/11/04 10:06:02;;;;;;;;;2.25;1.25;;;;;17.74;44.66;100638.97;4994010;28;50915;-47
2021/11/04 10:08:34;;;;;;;;;1.50;1.50;;;;;17.73;44.44;100640.00;5006530;28;51193;-42
2021/11/04 10:11:10;;;;;;;;;1.75;1.75;;;;;17.74;44.53;100642.53;4994446;28;51056;-46
2021/11/04 10:13:36;;;;;;;;;2.00;2.00;;;;;17.74;44.58;100650.75;4993378;28;51894;-46
2021/11/04 10:16:02;;;;;;;;;3.00;2.00;;;;;17.76;44.77;100650.56;4993866;28;51098;-43
2021/11/04 10:18:27;;;;;;;;;2.00;2.00;;;;;17.77;44.90;100649.50;4993916;28;50941;-49
2021/11/04 10:20:59;;;;;;;;;2.00;2.00;;;;;17.77;44.38;100653.06;4994192;28;50998;-45
2021/11/04 10:23:27;;;;;;;;;2.00;2.00;;;;;17.78;44.48;100652.00;4993725;28;51038;-47
2021/11/04 10:26:11;;;;;;;;;1.50;1.50;;;;;17.78;44.69;100657.50;4996358;28;51050;-47
2021/11/04 10:28:39;;;;;;;;;1.00;1.00;;;;;17.79;44.51;100661.06;5076722;27;51076;-42
2021/11/04 10:31:07;;;;;;;;;3.50;2.00;;;;;17.80;44.55;100657.28;5076916;27;50973;-47
2021/11/04 10:33:35;;;;;;;;;1.25;1.00;;;;;17.80;44.72;100654.53;5076447;27;51094;-48
2021/11/04 10:36:14;;;;;;;;;2.75;2.75;;;;;17.81;44.43;100657.06;5076357;27;51045;-48
2021/11/04 10:38:47;;;;;;;;;1.50;1.50;;;;;17.82;44.55;100652.44;5075610;28;51090;-47
2021/11/04 10:41:34;;;;;;;;;1.00;1.00;;;;;17.83;44.43;100645.94;5076251;27;51122;-48
2021/11/04 10:44:04;;;;;;;;;2.75;2.75;;;;;17.83;44.58;100668.69;5075886;27;50999;-48
2021/11/04 10:46:31;;;;;;;;;1.00;1.00;;;;;17.84;44.28;100662.16;5076356;27;51687;-50
2021/11/04 10:48:59;;;;;;;;;1.75;1.75;;;;;17.84;44.81;100670.38;5075951;28;51156;-48
2021/11/04 10:51:25;;;;;;;;;2.00;2.00;;;;;17.86;44.65;100659.19;5076367;27;51115;-44
2021/11/04 10:54:28;;;;;;;;;0.75;0.75;;;;;17.87;44.48;100664.47;5075965;27;52707;-46
2021/11/04 10:56:54;;;;;;;;;1.50;1.25;;;;;17.87;44.52;100656.25;5075055;28;51039;-43
2021/11/04 10:59:20;;;;;;;;;1.25;1.25;;;;;17.88;44.59;100662.56;5076111;27;51084;-44
2021/11/04 11:01:48;;;;;;;;;1.75;1.75;;;;;17.88;44.43;100662.56;5076541;27;51105;-48
2021/11/04 11:04:19;;;;;;;;;3.00;2.00;;;;;17.89;44.29;100661.50;5075814;27;51141;-44
2021/11/04 11:06:48;;;;;;;;;1.75;1.75;;;;;17.88;44.51;100665.31;5075916;27;51370;-46
2021/11/04 11:09:16;;;;;;;;;1.00;1.00;;;;;17.88;44.59;100663.41;5076045;27;51090;-46
2021/11/04 11:11:44;;;;;;;;;0.75;0.75;;;;;17.89;44.48;100673.31;5076059;27;51113;-46
2021/11/04 11:14:11;;;;;;;;;2.00;2.00;;;;;17.89;44.18;100675.22;5075410;27;50949;-46
2021/11/04 11:16:41;;;;;;;;;1.50;0.50;;;;;17.88;44.38;100685.34;5075423;27;51036;-49
2021/11/04 11:19:10;;;;;;;;;2.75;2.75;;;;;17.89;44.68;100694.41;5075633;27;51045;-46
2021/11/04 11:21:41;;;;;;;;;2.00;2.00;;;;;17.89;44.51;100691.66;5075856;27;51112;-46
2021/11/04 11:24:12;;;;;;;;;1.75;1.75;;;;;17.88;44.43;100685.34;5075694;27;51962;-46
2021/11/04 11:26:40;;;;;;;;;2.00;1.00;;;;;17.89;44.52;100697.13;5047410;27;51330;-45